Time;durP1;ratioP1;P1;durP2;ratioP2;P2;SDS_P1;SDS_P2;PMS_P1;PMS_P2;Temp;Humidity;BMP_temperature;BMP_pressure;BME280_temperature;BME280_humidity;BME280_pressure;Samples;Min_cycle;Max_cycle;Signal;HPM_P1;HPM_P2
2023/12/09 00:02:21;;;;;;;21.00;10.45;;;7.80;99.90;;;;;;5093804;28;20035;-86
2023/12/09 00:04:47;;;;;;;20.88;10.20;;;7.90;99.90;;;;;;5092833;28;20028;-86
2023/12/09 00:07:12;;;;;;;17.10;10.05;;;7.90;99.90;;;;;;5092679;28;20037;-86
2023/12/09 00:09:38;;;;;;;21.08;10.38;;;7.80;99.90;;;;;;5093197;28;20032;-86
2023/12/09 00:12:04;;;;;;;19.63;10.75;;;7.90;99.90;;;;;;5092793;28;20028;-86
2023/12/09 00:14:29;;;;;;;22.63;10.60;;;7.90;99.90;;;;;;5092517;28;20032;-87
2023/12/09 00:16:55;;;;;;;22.58;11.68;;;7.90;99.90;;;;;;5093083;28;20488;-85
2023/12/09 00:19:21;;;;;;;21.85;11.13;;;7.90;99.90;;;;;;5092321;28;20076;-86
2023/12/09 00:21:46;;;;;;;18.38;9.77;;;7.90;99.90;;;;;;5095521;28;20020;-86
2023/12/09 00:24:12;;;;;;;21.17;11.05;;;8.00;99.90;;;;;;5096453;28;20457;-87
2023/12/09 00:26:37;;;;;;;21.27;10.27;;;8.00;99.90;;;;;;5097563;28;20028;-86
2023/12/09 00:29:03;;;;;;;20.58;10.88;;;8.00;99.90;;;;;;5096831;28;20020;-87
2023/12/09 00:31:28;;;;;;;18.50;10.07;;;8.00;99.90;;;;;;5096365;28;20036;-86
2023/12/09 00:33:54;;;;;;;23.20;11.48;;;8.00;99.90;;;;;;5097088;28;20036;-87
2023/12/09 00:36:20;;;;;;;19.90;10.35;;;8.00;99.90;;;;;;5096390;28;20030;-86
2023/12/09 00:38:45;;;;;;;22.27;11.43;;;8.00;99.90;;;;;;5096665;28;20051;-85
2023/12/09 00:41:11;;;;;;;23.48;11.38;;;7.90;99.90;;;;;;5096206;28;20082;-87
2023/12/09 00:43:37;;;;;;;23.13;11.18;;;7.90;99.90;;;;;;5096699;28;20024;-86
2023/12/09 00:46:02;;;;;;;25.35;12.25;;;7.90;99.90;;;;;;5096681;28;20135;-87
2023/12/09 00:48:28;;;;;;;22.33;11.20;;;7.90;99.90;;;;;;5096176;28;20028;-86
2023/12/09 00:50:53;;;;;;;20.23;11.07;;;7.90;99.90;;;;;;5096579;28;20082;-86
2023/12/09 00:53:19;;;;;;;22.42;11.85;;;7.90;99.90;;;;;;5096291;28;20124;-87
2023/12/09 00:55:45;;;;;;;26.45;10.85;;;7.90;99.90;;;;;;5096662;28;20381;-86
2023/12/09 00:58:10;;;;;;;23.65;11.10;;;7.90;99.90;;;;;;5097475;28;20028;-85
2023/12/09 01:00:36;;;;;;;20.90;12.20;;;7.90;99.90;;;;;;5095555;28;20177;-86
2023/12/09 01:03:02;;;;;;;27.00;11.15;;;7.90;99.90;;;;;;5097324;28;20032;-86
2023/12/09 01:05:27;;;;;;;25.77;11.88;;;7.90;99.90;;;;;;5096670;28;20024;-86
2023/12/09 01:07:53;;;;;;;27.33;11.43;;;7.90;99.90;;;;;;5096227;28;20032;-86
2023/12/09 01:10:18;;;;;;;21.85;11.82;;;7.90;99.90;;;;;;5095489;28;20032;-86
2023/12/09 01:12:44;;;;;;;21.35;11.73;;;7.90;99.90;;;;;;5096136;28;20024;-86
2023/12/09 01:15:09;;;;;;;22.50;12.27;;;7.90;99.90;;;;;;5096070;28;20032;-86
2023/12/09 01:17:35;;;;;;;22.63;11.35;;;7.90;99.90;;;;;;5095654;28;20028;-86
2023/12/09 01:20:00;;;;;;;22.70;11.25;;;7.90;99.90;;;;;;5096136;28;20469;-86
2023/12/09 01:22:26;;;;;;;23.05;11.77;;;7.90;99.90;;;;;;5095401;28;20059;-86
2023/12/09 01:24:52;;;;;;;25.73;11.38;;;7.90;99.90;;;;;;5096820;28;20024;-86
2023/12/09 01:27:17;;;;;;;22.63;11.13;;;7.90;99.90;;;;;;5095245;28;20418;-86
2023/12/09 01:29:43;;;;;;;23.08;11.23;;;7.90;99.90;;;;;;5095692;28;20029;-86
2023/12/09 01:32:08;;;;;;;22.92;11.20;;;7.80;99.90;;;;;;5095284;28;20043;-86
2023/12/09 01:34:36;;;;;;;19.42;11.32;;;7.80;99.90;;;;;;5096200;28;20030;-86
2023/12/09 01:37:02;;;;;;;22.85;11.52;;;7.80;99.90;;;;;;5096550;28;20024;-86
2023/12/09 01:39:27;;;;;;;24.58;12.50;;;7.80;99.90;;;;;;5096021;28;20127;-86
2023/12/09 01:41:53;;;;;;;22.13;10.65;;;7.80;99.90;;;;;;5095794;28;20020;-86
2023/12/09 01:44:18;;;;;;;26.20;11.70;;;7.80;99.90;;;;;;5096161;28;20024;-86
2023/12/09 01:46:44;;;;;;;17.80;10.77;;;7.80;99.90;;;;;;5095580;28;20024;-86
2023/12/09 01:49:10;;;;;;;22.50;11.00;;;7.80;99.90;;;;;;5095448;28;20039;-86
2023/12/09 01:51:38;;;;;;;22.10;10.80;;;7.70;99.90;;;;;;5094782;28;20032;-86
2023/12/09 01:54:04;;;;;;;32.05;15.20;;;7.70;99.90;;;;;;5095848;28;20024;-87
2023/12/09 01:56:30;;;;;;;52.17;20.98;;;7.70;99.90;;;;;;5097512;28;20036;-87
2023/12/09 01:58:55;;;;;;;61.60;25.67;;;7.70;99.90;;;;;;5098271;28;20111;-86
2023/12/09 02:01:21;;;;;;;34.80;15.77;;;7.70;99.90;;;;;;5094762;28;20438;-87
2023/12/09 02:03:49;;;;;;;25.80;11.50;;;7.70;99.90;;;;;;5095081;28;20035;-87
2023/12/09 02:06:15;;;;;;;22.55;10.85;;;7.70;99.90;;;;;;5096067;28;20028;-86
2023/12/09 02:08:41;;;;;;;23.23;11.80;;;7.60;99.90;;;;;;5096111;28;20043;-86
2023/12/09 02:11:38;;;;;;;22.58;11.07;;;7.60;99.90;;;;;;5094585;28;20024;-86
2023/12/09 02:14:32;;;;;;;21.70;10.75;;;7.60;99.90;;;;;;5095718;28;20020;-86
2023/12/09 02:17:12;;;;;;;23.33;11.38;;;7.50;99.90;;;;;;5090460;28;20036;-86
2023/12/09 02:19:39;;;;;;;21.58;10.98;;;7.50;99.90;;;;;;5094459;28;20028;-85
2023/12/09 02:22:06;;;;;;;22.63;10.30;;;7.50;99.90;;;;;;5094496;28;20345;-86
2023/12/09 02:24:33;;;;;;;20.42;10.30;;;7.50;99.90;;;;;;5094179;28;20024;-87
2023/12/09 02:27:12;;;;;;;21.40;11.00;;;7.40;99.90;;;;;;5094434;28;20289;-86
2023/12/09 02:30:03;;;;;;;20.25;9.43;;;7.40;99.90;;;;;;5094325;28;20538;-86
2023/12/09 02:32:33;;;;;;;20.25;9.93;;;7.40;99.90;;;;;;5088201;28;20043;-87
2023/12/09 02:35:02;;;;;;;28.13;10.40;;;7.30;99.90;;;;;;5094457;28;20412;-86
2023/12/09 02:37:32;;;;;;;17.58;10.20;;;7.30;99.90;;;;;;5093817;28;20365;-86
2023/12/09 02:39:59;;;;;;;23.17;10.05;;;7.30;99.90;;;;;;5095311;28;20051;-86
2023/12/09 02:42:26;;;;;;;21.70;10.40;;;7.20;99.90;;;;;;5093722;28;20428;-87
2023/12/09 02:44:55;;;;;;;21.70;10.85;;;7.20;99.90;;;;;;5093950;28;20024;-85
2023/12/09 02:47:21;;;;;;;27.02;11.60;;;7.20;99.90;;;;;;5093675;28;20039;-87
2023/12/09 02:49:47;;;;;;;24.40;10.95;;;7.20;99.90;;;;;;5094241;28;20131;-87
2023/12/09 02:52:13;;;;;;;23.38;10.13;;;7.10;99.90;;;;;;5094217;28;20043;-87
2023/12/09 02:54:39;;;;;;;25.70;11.13;;;7.10;99.90;;;;;;5093815;28;20097;-86
2023/12/09 02:57:04;;;;;;;19.95;9.77;;;7.10;99.90;;;;;;5094146;28;20024;-87
2023/12/09 02:59:30;;;;;;;23.30;11.10;;;7.10;99.90;;;;;;5093347;28;20097;-86
2023/12/09 03:01:56;;;;;;;30.40;10.93;;;7.10;99.90;;;;;;5093673;28;20457;-87
2023/12/09 03:04:22;;;;;;;24.95;11.15;;;7.20;99.90;;;;;;5093600;28;20031;-87
2023/12/09 03:06:48;;;;;;;22.48;11.18;;;7.20;99.90;;;;;;5093600;28;20032;-87
2023/12/09 03:09:13;;;;;;;20.30;10.23;;;7.20;99.90;;;;;;5093744;28;20116;-87
2023/12/09 03:11:39;;;;;;;21.85;11.23;;;7.20;99.90;;;;;;5093068;28;20024;-86
2023/12/09 03:14:05;;;;;;;24.70;11.02;;;7.20;99.90;;;;;;5093878;28;20020;-86
2023/12/09 03:16:30;;;;;;;23.60;10.82;;;7.20;99.90;;;;;;5092966;28;20028;-87
2023/12/09 03:18:56;;;;;;;23.60;11.02;;;7.30;99.90;;;;;;5095369;28;20024;-86
2023/12/09 03:21:22;;;;;;;22.67;10.45;;;7.20;99.90;;;;;;5093191;28;20415;-88
2023/12/09 03:23:47;;;;;;;23.23;10.93;;;7.30;99.90;;;;;;5094686;28;20020;-86
2023/12/09 03:26:17;;;;;;;24.63;10.93;;;7.30;99.90;;;;;;5094717;28;20126;-87
2023/12/09 03:28:43;;;;;;;23.23;10.88;;;7.30;99.90;;;;;;5093187;28;20114;-86
2023/12/09 03:31:14;;;;;;;24.60;11.82;;;7.30;99.90;;;;;;5094273;28;20032;-85
2023/12/09 03:33:40;;;;;;;27.63;11.35;;;7.30;99.90;;;;;;5094137;28;20035;-87
2023/12/09 03:36:07;;;;;;;24.25;10.50;;;7.40;99.90;;;;;;5094613;28;20115;-86
2023/12/09 03:38:33;;;;;;;24.85;10.63;;;7.40;99.90;;;;;;5093020;28;20028;-86
2023/12/09 03:40:58;;;;;;;23.73;10.77;;;7.40;99.90;;;;;;5094670;28;20136;-87
2023/12/09 03:43:24;;;;;;;28.25;11.25;;;7.40;99.90;;;;;;5094084;28;20036;-87
2023/12/09 03:45:49;;;;;;;26.38;11.73;;;7.40;99.90;;;;;;5093365;28;20032;-86
2023/12/09 03:48:15;;;;;;;23.05;11.10;;;7.40;99.90;;;;;;5093449;28;20384;-86
2023/12/09 03:50:40;;;;;;;23.33;10.50;;;7.40;99.90;;;;;;5092934;28;20028;-86
2023/12/09 03:53:06;;;;;;;25.92;11.35;;;7.40;99.90;;;;;;5093107;28;20032;-86
2023/12/09 03:55:32;;;;;;;22.83;11.45;;;7.40;99.90;;;;;;5092315;28;20381;-86
2023/12/09 03:57:57;;;;;;;26.35;11.73;;;7.40;99.90;;;;;;5094299;28;20028;-86
2023/12/09 04:00:23;;;;;;;24.67;11.00;;;7.40;99.90;;;;;;5092839;28;20024;-89
2023/12/09 04:02:49;;;;;;;26.45;10.70;;;7.40;99.90;;;;;;5093451;28;20439;-86
2023/12/09 04:05:14;;;;;;;25.25;11.38;;;7.40;99.90;;;;;;5093359;28;20024;-86
2023/12/09 04:07:40;;;;;;;22.23;10.43;;;7.40;99.90;;;;;;5092727;28;20380;-87
2023/12/09 04:10:06;;;;;;;31.38;11.27;;;7.40;99.90;;;;;;5093233;28;20043;-86
2023/12/09 04:12:32;;;;;;;25.20;11.55;;;7.50;99.90;;;;;;5092196;28;20060;-87
2023/12/09 04:14:58;;;;;;;23.20;11.40;;;7.40;99.90;;;;;;5094541;28;20028;-86
2023/12/09 04:17:23;;;;;;;21.65;10.88;;;7.40;99.90;;;;;;5094027;28;20032;-86
2023/12/09 04:19:51;;;;;;;23.70;11.35;;;7.40;99.90;;;;;;5093064;28;20536;-87
2023/12/09 04:22:17;;;;;;;26.17;12.10;;;7.50;99.90;;;;;;5093969;28;20077;-86
2023/12/09 04:24:43;;;;;;;22.95;10.60;;;7.50;99.90;;;;;;5092149;28;20461;-86
2023/12/09 04:27:08;;;;;;;30.42;11.93;;;7.50;99.90;;;;;;5093899;28;20036;-86
2023/12/09 04:29:34;;;;;;;24.98;11.52;;;7.50;99.90;;;;;;5092584;28;20034;-87
2023/12/09 04:32:00;;;;;;;23.15;11.02;;;7.40;99.90;;;;;;5093993;28;20031;-87
2023/12/09 04:34:25;;;;;;;22.27;11.88;;;7.50;99.90;;;;;;5092364;28;20032;-88
2023/12/09 04:36:51;;;;;;;25.75;11.75;;;7.50;99.90;;;;;;5092916;28;20029;-87
2023/12/09 04:39:16;;;;;;;23.15;11.07;;;7.50;99.90;;;;;;5092486;28;20161;-86
2023/12/09 04:41:42;;;;;;;28.33;11.20;;;7.50;99.90;;;;;;5092419;28;20080;-87
2023/12/09 04:44:08;;;;;;;26.25;11.02;;;7.50;99.90;;;;;;5093015;28;20461;-87
2023/12/09 04:46:34;;;;;;;25.23;10.68;;;7.40;99.90;;;;;;5092291;28;20070;-87
2023/12/09 04:49:00;;;;;;;26.73;11.30;;;7.40;99.90;;;;;;5092733;28;20028;-87
2023/12/09 04:51:26;;;;;;;26.73;11.52;;;7.50;99.90;;;;;;5092378;28;20385;-87
2023/12/09 04:53:51;;;;;;;25.00;10.98;;;7.40;99.90;;;;;;5092692;28;20024;-87
2023/12/09 04:56:18;;;;;;;24.55;10.57;;;7.50;99.90;;;;;;5092535;28;20120;-87
2023/12/09 04:58:43;;;;;;;26.45;11.02;;;7.50;99.90;;;;;;5093024;28;20039;-87
2023/12/09 05:01:09;;;;;;;24.70;12.00;;;7.50;99.90;;;;;;5092525;28;20370;-87
2023/12/09 05:03:35;;;;;;;23.77;11.77;;;7.40;99.90;;;;;;5092261;28;20028;-87
2023/12/09 05:06:00;;;;;;;21.10;10.90;;;7.50;99.90;;;;;;5092530;28;20024;-87
2023/12/09 05:08:27;;;;;;;22.80;10.63;;;7.50;99.90;;;;;;5095996;28;20464;-87
2023/12/09 05:10:53;;;;;;;22.95;11.23;;;7.50;99.90;;;;;;5096052;28;20487;-87
2023/12/09 05:13:19;;;;;;;22.05;10.73;;;7.50;99.90;;;;;;5096211;28;20032;-87
2023/12/09 05:15:44;;;;;;;24.05;10.32;;;7.50;99.90;;;;;;5095690;28;20061;-87
2023/12/09 05:18:10;;;;;;;22.42;10.95;;;7.50;99.90;;;;;;5097241;28;20024;-87
2023/12/09 05:20:35;;;;;;;24.95;10.50;;;7.40;99.90;;;;;;5096688;28;20358;-87
2023/12/09 05:23:01;;;;;;;23.10;11.43;;;7.50;99.90;;;;;;5095822;28;20024;-87
2023/12/09 05:25:26;;;;;;;26.45;10.75;;;7.40;99.90;;;;;;5095853;28;20491;-86
2023/12/09 05:27:52;;;;;;;19.50;9.77;;;7.50;99.90;;;;;;5095317;28;20077;-86
2023/12/09 05:30:17;;;;;;;19.58;10.48;;;7.40;99.90;;;;;;5095647;28;20115;-86
2023/12/09 05:32:43;;;;;;;21.23;9.95;;;7.40;99.90;;;;;;5095445;28;20122;-86
2023/12/09 05:35:10;;;;;;;24.33;10.77;;;7.40;99.90;;;;;;5095689;28;20050;-87
2023/12/09 05:37:35;;;;;;;23.10;9.88;;;7.40;99.90;;;;;;5095166;28;20039;-86
2023/12/09 05:40:03;;;;;;;26.15;10.85;;;7.40;99.90;;;;;;5095652;28;20048;-86
2023/12/09 05:42:29;;;;;;;20.23;9.52;;;7.40;99.90;;;;;;5095750;28;20115;-86
2023/12/09 05:44:54;;;;;;;25.00;10.02;;;7.50;99.90;;;;;;5095664;28;20135;-86
2023/12/09 05:47:20;;;;;;;23.20;9.63;;;7.50;99.90;;;;;;5095213;28;20433;-86
2023/12/09 05:49:46;;;;;;;24.23;9.43;;;7.40;99.90;;;;;;5094777;28;20073;-87
2023/12/09 05:52:11;;;;;;;20.35;9.93;;;7.40;99.90;;;;;;5095144;28;20028;-87
2023/12/09 05:54:37;;;;;;;24.05;9.85;;;7.50;99.90;;;;;;5094932;28;20024;-86
2023/12/09 05:57:03;;;;;;;17.92;8.57;;;7.50;99.90;;;;;;5095123;28;20028;-87
2023/12/09 05:59:29;;;;;;;20.98;9.40;;;7.50;99.90;;;;;;5095155;28;20028;-87
2023/12/09 06:01:55;;;;;;;22.33;10.50;;;7.50;99.90;;;;;;5095823;28;20502;-86
2023/12/09 06:04:21;;;;;;;21.00;9.65;;;7.40;99.90;;;;;;5095148;28;20071;-87
2023/12/09 06:06:46;;;;;;;25.55;9.45;;;7.50;99.90;;;;;;5094785;28;20051;-86
2023/12/09 06:09:12;;;;;;;20.75;9.52;;;7.40;99.90;;;;;;5096029;28;20078;-87
2023/12/09 06:11:37;;;;;;;26.67;11.05;;;7.40;99.90;;;;;;5094550;28;20115;-87
2023/12/09 06:14:03;;;;;;;23.38;9.73;;;7.40;99.90;;;;;;5094674;28;20381;-87
2023/12/09 06:16:29;;;;;;;23.08;10.23;;;7.30;99.90;;;;;;5094984;28;20028;-86
2023/12/09 06:18:54;;;;;;;21.42;9.13;;;7.30;99.90;;;;;;5093779;28;20020;-87
2023/12/09 06:21:24;;;;;;;21.40;9.55;;;7.30;99.90;;;;;;5095640;28;20023;-87
2023/12/09 06:23:50;;;;;;;19.35;9.15;;;7.30;99.90;;;;;;5094139;28;20024;-86
2023/12/09 06:26:16;;;;;;;19.45;9.13;;;7.30;99.90;;;;;;5094473;28;20146;-86
2023/12/09 06:28:42;;;;;;;28.70;11.50;;;7.30;99.90;;;;;;5094458;28;20028;-86
2023/12/09 06:31:10;;;;;;;24.80;9.82;;;7.20;99.90;;;;;;5095881;28;20028;-86
2023/12/09 06:33:36;;;;;;;19.52;8.05;;;7.20;99.90;;;;;;5095213;28;20035;-86
2023/12/09 06:36:02;;;;;;;17.55;8.77;;;7.20;99.90;;;;;;5094771;28;20024;-86
2023/12/09 06:38:27;;;;;;;18.20;8.50;;;7.20;99.90;;;;;;5095565;28;20047;-87
2023/12/09 06:40:53;;;;;;;15.02;7.63;;;7.20;99.90;;;;;;5093701;28;20084;-87
2023/12/09 06:43:18;;;;;;;19.98;7.05;;;7.30;99.90;;;;;;5094541;28;20036;-86
2023/12/09 06:45:44;;;;;;;15.45;6.88;;;7.30;99.90;;;;;;5094026;28;20020;-86
2023/12/09 06:48:09;;;;;;;15.00;6.63;;;7.30;99.90;;;;;;5095251;28;20032;-86
2023/12/09 06:50:35;;;;;;;14.75;6.82;;;7.30;99.90;;;;;;5093954;28;20054;-87
2023/12/09 06:53:01;;;;;;;15.00;6.45;;;7.30;99.90;;;;;;5094502;28;20020;-86
2023/12/09 06:55:26;;;;;;;13.70;6.18;;;7.30;99.90;;;;;;5094416;28;20465;-86
2023/12/09 06:57:52;;;;;;;10.43;6.35;;;7.30;99.90;;;;;;5093643;28;20028;-86
2023/12/09 07:00:17;;;;;;;14.77;5.80;;;7.30;99.90;;;;;;5094110;28;20020;-86
2023/12/09 07:02:43;;;;;;;11.52;5.80;;;7.30;99.90;;;;;;5094506;28;20042;-87
2023/12/09 07:05:13;;;;;;;12.77;6.03;;;7.40;99.90;;;;;;5094177;28;20062;-86
2023/12/09 07:07:39;;;;;;;16.45;6.90;;;7.30;99.90;;;;;;5094329;28;20020;-87
2023/12/09 07:10:05;;;;;;;15.77;6.85;;;7.30;99.90;;;;;;5093883;28;20059;-86
2023/12/09 07:12:31;;;;;;;11.77;5.90;;;7.30;99.90;;;;;;5093785;28;20028;-86
2023/12/09 07:14:59;;;;;;;12.98;6.55;;;7.40;99.90;;;;;;5093668;28;20024;-86
2023/12/09 07:17:25;;;;;;;13.43;5.88;;;7.30;99.90;;;;;;5093968;28;20118;-86
2023/12/09 07:19:52;;;;;;;14.18;5.75;;;7.40;99.90;;;;;;5094310;28;20028;-86
2023/12/09 07:22:18;;;;;;;16.33;5.85;;;7.30;99.90;;;;;;5093565;28;20032;-86
2023/12/09 07:24:44;;;;;;;13.45;5.72;;;7.30;99.90;;;;;;5093254;28;20464;-87
2023/12/09 07:27:09;;;;;;;15.18;6.20;;;7.20;99.90;;;;;;5093524;28;20032;-87
2023/12/09 07:29:35;;;;;;;16.20;5.85;;;7.20;99.90;;;;;;5093257;28;20362;-88
2023/12/09 07:32:01;;;;;;;12.95;5.55;;;7.10;99.90;;;;;;5093037;28;20053;-86
2023/12/09 07:34:27;;;;;;;12.82;5.65;;;7.10;99.90;;;;;;5093544;28;20036;-86
2023/12/09 07:36:52;;;;;;;9.15;5.43;;;7.00;99.90;;;;;;5093260;28;20384;-86
2023/12/09 07:39:18;;;;;;;13.15;6.03;;;7.00;99.90;;;;;;5094366;28;20048;-86
2023/12/09 07:41:44;;;;;;;12.40;6.07;;;7.00;99.90;;;;;;5092972;28;20411;-86
2023/12/09 07:44:10;;;;;;;14.75;7.68;;;7.00;99.90;;;;;;5094666;28;20024;-86
2023/12/09 07:46:36;;;;;;;8.20;5.03;;;7.10;99.90;;;;;;5092876;28;20492;-86
2023/12/09 07:49:02;;;;;;;14.90;5.90;;;7.20;99.90;;;;;;5093263;28;20051;-86
2023/12/09 07:51:27;;;;;;;12.45;4.80;;;7.20;99.90;;;;;;5093298;28;20054;-87
2023/12/09 07:53:53;;;;;;;12.40;4.43;;;7.20;99.90;;;;;;5092885;28;20016;-87
2023/12/09 07:56:19;;;;;;;15.02;5.13;;;7.20;99.90;;;;;;5094334;28;20105;-86
2023/12/09 07:58:45;;;;;;;14.80;5.50;;;7.20;99.90;;;;;;5093225;28;20024;-86
2023/12/09 08:01:11;;;;;;;12.43;5.20;;;7.20;99.90;;;;;;5092895;28;20434;-87
2023/12/09 08:03:37;;;;;;;14.40;5.25;;;7.10;99.90;;;;;;5094426;28;20032;-86
2023/12/09 08:06:03;;;;;;;11.30;4.68;;;7.20;99.90;;;;;;5093251;28;20388;-86
2023/12/09 08:08:29;;;;;;;11.60;4.43;;;7.10;99.90;;;;;;5093300;28;20035;-87
2023/12/09 08:10:54;;;;;;;14.02;4.80;;;7.10;99.90;;;;;;5093730;28;20016;-87
2023/12/09 08:13:23;;;;;;;10.38;4.60;;;7.10;99.90;;;;;;5092905;28;20492;-86
2023/12/09 08:15:49;;;;;;;9.23;4.30;;;7.10;99.90;;;;;;5092465;28;20077;-86
2023/12/09 08:18:16;;;;;;;8.18;4.53;;;7.00;99.90;;;;;;5092842;28;20024;-86
2023/12/09 08:20:41;;;;;;;12.88;4.75;;;7.00;99.90;;;;;;5093517;28;20027;-87
2023/12/09 08:23:07;;;;;;;11.45;4.30;;;7.00;99.90;;;;;;5092758;28;20024;-86
2023/12/09 08:25:32;;;;;;;11.45;4.68;;;7.00;99.90;;;;;;5093233;28;20077;-86
2023/12/09 08:27:58;;;;;;;9.65;4.43;;;6.90;99.90;;;;;;5092378;28;20133;-86
2023/12/09 08:30:24;;;;;;;10.77;4.25;;;7.00;99.90;;;;;;5092602;28;20032;-87
2023/12/09 08:32:49;;;;;;;10.57;4.28;;;7.00;99.90;;;;;;5092501;28;20032;-88
2023/12/09 08:35:15;;;;;;;12.68;4.60;;;7.00;99.90;;;;;;5093801;28;20024;-88
2023/12/09 08:37:40;;;;;;;9.85;4.60;;;7.00;99.90;;;;;;5092753;28;20031;-86
2023/12/09 08:40:10;;;;;;;10.77;4.95;;;7.00;99.90;;;;;;5093637;28;20048;-88
2023/12/09 08:42:40;;;;;;;12.70;4.10;;;7.10;99.90;;;;;;5096344;28;20028;-87
2023/12/09 08:45:07;;;;;;;10.55;4.38;;;7.10;99.90;;;;;;5096813;28;20534;-87
2023/12/09 08:47:33;;;;;;;11.40;4.60;;;7.20;99.90;;;;;;5096604;28;20564;-87
2023/12/09 08:49:58;;;;;;;17.05;4.40;;;7.20;99.90;;;;;;5095982;28;20068;-87
2023/12/09 08:52:24;;;;;;;11.50;4.38;;;7.30;99.90;;;;;;5097732;28;20106;-86
2023/12/09 08:54:49;;;;;;;14.07;4.68;;;7.40;99.90;;;;;;5096315;28;20024;-87
2023/12/09 08:57:15;;;;;;;8.70;4.40;;;7.40;99.90;;;;;;5097468;28;20028;-86
2023/12/09 08:59:41;;;;;;;12.48;5.05;;;7.40;99.90;;;;;;5096221;28;20082;-87
2023/12/09 09:02:06;;;;;;;14.80;4.93;;;7.40;99.90;;;;;;5096488;28;20065;-87
2023/12/09 09:04:32;;;;;;;10.10;4.65;;;7.50;99.90;;;;;;5097373;28;20032;-87
2023/12/09 09:06:57;;;;;;;14.02;4.70;;;7.50;99.90;;;;;;5096907;28;20032;-87
2023/12/09 09:09:23;;;;;;;7.68;3.65;;;7.50;99.90;;;;;;5096493;28;20020;-87
2023/12/09 09:11:49;;;;;;;14.25;3.95;;;7.60;99.90;;;;;;5096993;28;20036;-87
2023/12/09 09:14:15;;;;;;;9.05;4.18;;;7.70;99.90;;;;;;5096354;28;20028;-86
2023/12/09 09:16:41;;;;;;;11.88;3.90;;;7.80;99.90;;;;;;5096389;28;20081;-86
2023/12/09 09:19:06;;;;;;;8.27;3.85;;;7.80;99.90;;;;;;5096897;28;20024;-86
2023/12/09 09:21:32;;;;;;;7.68;3.55;;;7.90;99.90;;;;;;5095686;28;20028;-85
2023/12/09 09:23:57;;;;;;;8.45;3.42;;;7.90;99.90;;;;;;5095468;28;20024;-86
2023/12/09 09:26:23;;;;;;;8.13;3.33;;;7.90;99.90;;;;;;5095916;28;20055;-86
2023/12/09 09:28:49;;;;;;;9.18;3.42;;;8.00;99.90;;;;;;5095547;28;20577;-87
2023/12/09 09:31:14;;;;;;;13.30;3.72;;;8.00;99.90;;;;;;5095545;28;20055;-87
2023/12/09 09:33:43;;;;;;;9.57;3.17;;;8.10;99.90;;;;;;5096917;28;20495;-87
2023/12/09 09:36:09;;;;;;;9.35;3.58;;;8.10;99.90;;;;;;5096117;28;20423;-87
2023/12/09 09:38:34;;;;;;;6.38;3.33;;;8.10;99.90;;;;;;5096675;28;20085;-87
2023/12/09 09:41:06;;;;;;;8.90;3.20;;;8.10;99.90;;;;;;5095874;28;20079;-87
2023/12/09 09:43:37;;;;;;;;;;;8.10;99.90;;;;;;5096312;28;20486;-87
2023/12/09 09:46:07;;;;;;;9.45;3.38;;;8.10;99.90;;;;;;5095070;28;19904;-86
2023/12/09 09:48:37;;;;;;;8.10;3.30;;;8.20;99.90;;;;;;5095807;28;20028;-86
2023/12/09 09:51:07;;;;;;;14.88;3.80;;;8.20;99.90;;;;;;5096287;28;20028;-86
2023/12/09 09:53:36;;;;;;;7.25;3.42;;;8.30;99.90;;;;;;5095672;28;20103;-86
2023/12/09 09:56:05;;;;;;;10.50;3.25;;;8.30;99.90;;;;;;5094999;28;20052;-84
2023/12/09 09:58:32;;;;;;;8.57;3.20;;;8.40;99.90;;;;;;5095248;28;20027;-85
2023/12/09 10:00:59;;;;;;;10.02;3.28;;;8.40;99.90;;;;;;5095152;28;20028;-85
2023/12/09 10:03:25;;;;;;;6.90;3.08;;;8.40;99.90;;;;;;5095170;28;20461;-87
2023/12/09 10:05:53;;;;;;;9.27;3.42;;;8.40;99.90;;;;;;5094722;28;20027;-88
2023/12/09 10:08:18;;;;;;;7.72;2.70;;;8.50;99.90;;;;;;5096435;28;20042;-86
2023/12/09 10:10:45;;;;;;;7.47;2.75;;;8.60;99.90;;;;;;5095248;28;20028;-86
2023/12/09 10:13:11;;;;;;;7.75;2.58;;;8.60;99.90;;;;;;5095902;28;20032;-88
2023/12/09 10:15:37;;;;;;;9.70;3.15;;;8.70;99.90;;;;;;5097256;28;20115;-87
2023/12/09 10:18:03;;;;;;;6.30;2.80;;;8.70;99.90;;;;;;5095555;28;20461;-88
2023/12/09 10:20:30;;;;;;;4.32;2.60;;;8.80;99.90;;;;;;5094253;28;20047;-88
2023/12/09 10:22:57;;;;;;;6.40;2.58;;;8.80;99.90;;;;;;5095907;28;20042;-86
2023/12/09 10:25:23;;;;;;;5.97;2.55;;;8.70;99.90;;;;;;5095945;28;20032;-87
2023/12/09 10:27:49;;;;;;;14.48;6.75;;;8.80;99.90;;;;;;5094401;28;20610;-87
2023/12/09 10:30:18;;;;;;;8.95;3.90;;;8.80;99.90;;;;;;5094580;28;20055;-87
2023/12/09 10:32:44;;;;;;;5.95;2.80;;;8.80;99.90;;;;;;5094777;28;20038;-87
2023/12/09 10:35:10;;;;;;;8.10;3.10;;;8.90;99.90;;;;;;5094076;28;20027;-87
2023/12/09 10:37:36;;;;;;;7.28;2.90;;;8.90;99.90;;;;;;5094350;28;20039;-87
2023/12/09 10:40:08;;;;;;;5.28;3.13;;;8.90;99.90;;;;;;5093822;28;20097;-86
2023/12/09 10:42:37;;;;;;;6.82;2.83;;;8.90;99.90;;;;;;5094617;28;20031;-86
2023/12/09 10:45:04;;;;;;;4.38;2.72;;;8.90;99.90;;;;;;5095266;28;20024;-86
2023/12/09 10:47:30;;;;;;;7.43;2.53;;;8.90;99.90;;;;;;5094438;28;20055;-86
2023/12/09 10:49:57;;;;;;;4.50;2.47;;;8.90;99.90;;;;;;5093974;28;20028;-85
2023/12/09 10:52:22;;;;;;;5.75;2.45;;;8.90;99.90;;;;;;5095289;28;20039;-86
2023/12/09 10:54:48;;;;;;;7.78;2.53;;;8.90;99.90;;;;;;5093716;28;20032;-87
2023/12/09 10:57:15;;;;;;;5.15;2.22;;;8.90;99.90;;;;;;5094427;28;20039;-87
2023/12/09 10:59:41;;;;;;;7.05;2.47;;;8.90;99.90;;;;;;5094112;28;20028;-87
2023/12/09 11:02:08;;;;;;;7.10;2.50;;;8.90;99.90;;;;;;5093540;28;20047;-86
2023/12/09 11:04:34;;;;;;;5.75;2.25;;;8.90;99.90;;;;;;5093950;28;20032;-86
2023/12/09 11:07:03;;;;;;;5.05;2.63;;;8.90;99.90;;;;;;5093331;28;20059;-86
2023/12/09 11:09:31;;;;;;;6.70;2.97;;;8.80;99.90;;;;;;5094002;28;20034;-86
2023/12/09 11:11:58;;;;;;;7.55;2.60;;;8.90;99.90;;;;;;5093684;28;20046;-86
2023/12/09 11:14:27;;;;;;;4.70;2.28;;;8.80;99.90;;;;;;5093925;28;20063;-86
2023/12/09 11:16:53;;;;;;;4.65;2.08;;;8.90;99.90;;;;;;5093460;28;20075;-86
2023/12/09 11:19:22;;;;;;;8.95;2.20;;;8.90;99.90;;;;;;5094872;28;20025;-86
2023/12/09 11:21:48;;;;;;;2.72;2.10;;;8.90;99.90;;;;;;5093781;28;20035;-86
2023/12/09 11:24:15;;;;;;;4.72;2.28;;;8.90;99.90;;;;;;5093392;28;20025;-86
2023/12/09 11:26:46;;;;;;;6.13;2.60;;;9.00;99.90;;;;;;5094627;28;20028;-86
2023/12/09 11:29:12;;;;;;;4.30;2.38;;;9.00;99.90;;;;;;5092845;28;20032;-86
2023/12/09 11:31:43;;;;;;;4.55;2.25;;;9.00;99.90;;;;;;5093813;28;20116;-86
2023/12/09 11:34:11;;;;;;;6.97;2.17;;;9.10;99.90;;;;;;5093188;28;20380;-86
2023/12/09 11:36:38;;;;;;;5.68;2.10;;;9.10;99.90;;;;;;5093724;28;20031;-87
2023/12/09 11:39:10;;;;;;;6.80;2.20;;;9.10;99.90;;;;;;5093946;28;20027;-85
2023/12/09 11:41:40;;;;;;;6.88;1.67;;;9.00;99.90;;;;;;5093054;28;20032;-85
2023/12/09 11:44:07;;;;;;;3.70;1.80;;;9.00;99.90;;;;;;5094043;28;20020;-86
2023/12/09 11:46:34;;;;;;;5.70;1.58;;;9.00;99.90;;;;;;5093174;28;20039;-87
2023/12/09 11:49:02;;;;;;;4.60;1.90;;;9.00;99.90;;;;;;5092917;28;20028;-85
2023/12/09 11:51:29;;;;;;;3.63;1.75;;;9.00;99.90;;;;;;5093555;28;20063;-86
2023/12/09 11:53:59;;;;;;;4.72;1.63;;;9.10;99.90;;;;;;5093902;28;20024;-86
2023/12/09 11:56:26;;;;;;;4.30;1.52;;;9.20;99.90;;;;;;5093383;28;20056;-86
2023/12/09 11:58:52;;;;;;;9.45;1.80;;;9.20;99.90;;;;;;5092933;28;20461;-89
2023/12/09 12:01:18;;;;;;;3.80;1.27;;;9.30;99.90;;;;;;5093055;28;20548;-86
2023/12/09 12:03:48;;;;;;;4.63;1.02;;;9.40;99.90;;;;;;5093113;28;20035;-86
2023/12/09 12:06:18;;;;;;;3.83;0.93;;;9.60;99.90;;;;;;5092289;28;20111;-86
2023/12/09 12:08:45;;;;;;;3.60;1.25;;;9.70;99.90;;;;;;5093115;28;20423;-86
2023/12/09 12:11:11;;;;;;;3.92;1.00;;;9.80;99.90;;;;;;5093494;28;20032;-86
2023/12/09 12:13:37;;;;;;;3.88;1.00;;;10.00;99.90;;;;;;5093069;28;20034;-87
2023/12/09 12:16:03;;;;;;;5.82;1.27;;;10.10;99.90;;;;;;5092014;28;20052;-87
2023/12/09 12:18:29;;;;;;;5.47;1.20;;;10.10;99.90;;;;;;5097247;28;20020;-87
2023/12/09 12:20:56;;;;;;;4.07;1.27;;;10.20;99.90;;;;;;5096796;28;20031;-86
2023/12/09 12:23:22;;;;;;;4.07;1.00;;;10.20;99.90;;;;;;5096986;28;20381;-87
2023/12/09 12:25:54;;;;;;;2.85;1.15;;;10.10;99.90;;;;;;5098115;28;20487;-87
2023/12/09 12:28:21;;;;;;;2.13;0.80;;;10.10;99.90;;;;;;5096935;28;20028;-87
2023/12/09 12:30:54;;;;;;;4.22;0.90;;;10.00;99.90;;;;;;5096857;28;20058;-86
2023/12/09 12:33:24;;;;;;;4.45;1.00;;;10.00;99.90;;;;;;5096874;28;20036;-86
2023/12/09 12:35:54;;;;;;;1.90;0.80;;;9.90;99.90;;;;;;5096831;28;20085;-86
2023/12/09 12:38:24;;;;;;;4.00;0.90;;;9.90;99.90;;;;;;5097776;28;20028;-86
2023/12/09 12:40:54;;;;;;;5.05;0.80;;;9.90;99.90;;;;;;5096218;28;20142;-87
2023/12/09 12:43:21;;;;;;;1.52;0.80;;;9.90;99.90;;;;;;5096909;28;20035;-87